DNKN

Mallam Aminu International Airport

Kano, Nigeria
METAR DNKN 200700Z 31003KT 3000 HZ NSC 19/07 Q1014 NOSIG
Observed Flight Rules
Feb-20 @ 07:00 UTC (21 minutes ago) Instrument Flight Rules
Wind Visibility Clouds Conditions
310° at 3 knots 2,993 meters
  • Clear skies
  • Haze
Temperatures Readings
Current 19°C / 66°F
Dewpoint 7°C / 45°F
Humidity 46%
Altimeter 29.94" Hg
Pressure 1014 hPa
Elevation 481
METAR DNKN 200700Z 31003KT 3000 HZ NSC 19/07 Q1014 NOSIG
Observed Flight Rules
Feb-20 @ 07:00 UTC
(21 minutes ago)
IFR
Wind Visibility
310° at 3 knots 2,993 meters
Clouds
  • Clear skies
Conditions
  • Haze
Temperature Dewpoint
19°C / 66°F 7°C / 45°F
Humidity Altimeter Pressure
46% 29.94" Hg 1014 hPa